sensor_id;sensor_type;location;lat;lon;timestamp;temperature;humidity
74822;DHT22;63353;48.702;8.884;2023-05-07T00:01:51;10.20;99.90
74822;DHT22;63353;48.702;8.884;2023-05-07T00:04:20;10.20;99.90
74822;DHT22;63353;48.702;8.884;2023-05-07T00:06:52;10.30;99.90
74822;DHT22;63353;48.702;8.884;2023-05-07T00:09:17;10.20;99.90
74822;DHT22;63353;48.702;8.884;2023-05-07T00:11:49;10.20;99.90
74822;DHT22;63353;48.702;8.884;2023-05-07T00:14:14;10.20;99.90
74822;DHT22;63353;48.702;8.884;2023-05-07T00:16:43;10.20;99.90
74822;DHT22;63353;48.702;8.884;2023-05-07T00:19:20;10.20;99.90
74822;DHT22;63353;48.702;8.884;2023-05-07T00:21:46;10.20;99.90
74822;DHT22;63353;48.702;8.884;2023-05-07T00:24:12;10.10;99.90
74822;DHT22;63353;48.702;8.884;2023-05-07T00:26:37;10.20;99.90
74822;DHT22;63353;48.702;8.884;2023-05-07T00:29:03;10.10;99.90
74822;DHT22;63353;48.702;8.884;2023-05-07T00:31:29;10.10;99.90
74822;DHT22;63353;48.702;8.884;2023-05-07T00:33:54;10.10;99.90
74822;DHT22;63353;48.702;8.884;2023-05-07T00:36:26;10.10;99.90
74822;DHT22;63353;48.702;8.884;2023-05-07T00:38:51;10.10;99.90
74822;DHT22;63353;48.702;8.884;2023-05-07T00:41:18;10.10;99.90
74822;DHT22;63353;48.702;8.884;2023-05-07T00:43:46;10.00;99.90
74822;DHT22;63353;48.702;8.884;2023-05-07T00:46:13;10.10;99.90
74822;DHT22;63353;48.702;8.884;2023-05-07T00:48:39;10.00;99.90
74822;DHT22;63353;48.702;8.884;2023-05-07T00:51:05;10.00;99.90
74822;DHT22;63353;48.702;8.884;2023-05-07T00:53:31;10.00;99.90
74822;DHT22;63353;48.702;8.884;2023-05-07T00:56:06;10.00;99.90
74822;DHT22;63353;48.702;8.884;2023-05-07T00:58:32;10.00;99.90
74822;DHT22;63353;48.702;8.884;2023-05-07T01:00:59;10.00;99.90
74822;DHT22;63353;48.702;8.884;2023-05-07T01:03:28;10.00;99.90
74822;DHT22;63353;48.702;8.884;2023-05-07T01:05:55;10.00;99.90
74822;DHT22;63353;48.702;8.884;2023-05-07T01:08:23;10.00;99.90
74822;DHT22;63353;48.702;8.884;2023-05-07T01:11:16;10.00;99.90
74822;DHT22;63353;48.702;8.884;2023-05-07T01:13:42;10.00;99.90
74822;DHT22;63353;48.702;8.884;2023-05-07T01:16:17;9.90;99.90
74822;DHT22;63353;48.702;8.884;2023-05-07T01:18:46;9.90;99.90
74822;DHT22;63353;48.702;8.884;2023-05-07T01:21:15;9.90;99.90
74822;DHT22;63353;48.702;8.884;2023-05-07T01:23:48;9.90;99.90
74822;DHT22;63353;48.702;8.884;2023-05-07T01:26:17;9.90;99.90
74822;DHT22;63353;48.702;8.884;2023-05-07T01:28:45;9.90;99.90
74822;DHT22;63353;48.702;8.884;2023-05-07T01:31:20;9.90;99.90
74822;DHT22;63353;48.702;8.884;2023-05-07T01:33:48;9.90;99.90
74822;DHT22;63353;48.702;8.884;2023-05-07T01:36:14;9.90;99.90
74822;DHT22;63353;48.702;8.884;2023-05-07T01:38:41;9.90;99.90
74822;DHT22;63353;48.702;8.884;2023-05-07T01:41:07;9.90;99.90
74822;DHT22;63353;48.702;8.884;2023-05-07T01:43:33;9.90;99.90
74822;DHT22;63353;48.702;8.884;2023-05-07T01:45:59;9.90;99.90
74822;DHT22;63353;48.702;8.884;2023-05-07T01:48:32;9.90;99.90
74822;DHT22;63353;48.702;8.884;2023-05-07T01:50:59;9.90;99.90
74822;DHT22;63353;48.702;8.884;2023-05-07T01:53:27;9.90;99.90
74822;DHT22;63353;48.702;8.884;2023-05-07T01:55:56;9.80;99.90
74822;DHT22;63353;48.702;8.884;2023-05-07T01:58:25;9.80;99.90
74822;DHT22;63353;48.702;8.884;2023-05-07T02:00:53;9.80;99.90
74822;DHT22;63353;48.702;8.884;2023-05-07T02:03:21;9.90;99.90
74822;DHT22;63353;48.702;8.884;2023-05-07T02:05:59;9.80;99.90
74822;DHT22;63353;48.702;8.884;2023-05-07T02:08:28;9.80;99.90
74822;DHT22;63353;48.702;8.884;2023-05-07T02:10:53;9.80;99.90
74822;DHT22;63353;48.702;8.884;2023-05-07T02:13:19;9.80;99.90
74822;DHT22;63353;48.702;8.884;2023-05-07T02:15:50;9.70;99.90
74822;DHT22;63353;48.702;8.884;2023-05-07T02:18:16;9.70;99.90
74822;DHT22;63353;48.702;8.884;2023-05-07T02:20:42;9.70;99.90
74822;DHT22;63353;48.702;8.884;2023-05-07T02:23:11;9.70;99.90
74822;DHT22;63353;48.702;8.884;2023-05-07T02:25:39;9.70;99.90
74822;DHT22;63353;48.702;8.884;2023-05-07T02:28:11;9.70;99.90
74822;DHT22;63353;48.702;8.884;2023-05-07T02:30:40;9.60;99.90
74822;DHT22;63353;48.702;8.884;2023-05-07T02:33:06;9.60;99.90
74822;DHT22;63353;48.702;8.884;2023-05-07T02:35:33;9.60;99.90
74822;DHT22;63353;48.702;8.884;2023-05-07T02:37:59;9.60;99.90
74822;DHT22;63353;48.702;8.884;2023-05-07T02:40:30;9.60;99.90
74822;DHT22;63353;48.702;8.884;2023-05-07T02:42:59;9.50;99.90
74822;DHT22;63353;48.702;8.884;2023-05-07T02:45:25;9.50;99.90
74822;DHT22;63353;48.702;8.884;2023-05-07T02:47:50;9.50;99.90
74822;DHT22;63353;48.702;8.884;2023-05-07T02:50:19;9.50;99.90
74822;DHT22;63353;48.702;8.884;2023-05-07T02:52:44;9.50;99.90
74822;DHT22;63353;48.702;8.884;2023-05-07T02:55:10;9.50;99.90
74822;DHT22;63353;48.702;8.884;2023-05-07T02:57:36;9.40;99.90
74822;DHT22;63353;48.702;8.884;2023-05-07T03:00:11;9.40;99.90
74822;DHT22;63353;48.702;8.884;2023-05-07T03:02:37;9.30;99.90
74822;DHT22;63353;48.702;8.884;2023-05-07T03:05:02;9.20;99.90
74822;DHT22;63353;48.702;8.884;2023-05-07T03:07:32;9.20;99.90
74822;DHT22;63353;48.702;8.884;2023-05-07T03:09:57;9.10;99.90
74822;DHT22;63353;48.702;8.884;2023-05-07T03:12:26;9.00;99.90
74822;DHT22;63353;48.702;8.884;2023-05-07T03:14:52;9.00;99.90
74822;DHT22;63353;48.702;8.884;2023-05-07T03:17:21;8.90;99.90
74822;DHT22;63353;48.702;8.884;2023-05-07T03:19:47;8.90;99.90
74822;DHT22;63353;48.702;8.884;2023-05-07T03:22:12;8.90;99.90
74822;DHT22;63353;48.702;8.884;2023-05-07T03:24:42;8.90;99.90
74822;DHT22;63353;48.702;8.884;2023-05-07T03:27:09;8.90;99.90
74822;DHT22;63353;48.702;8.884;2023-05-07T03:29:35;8.90;99.90
74822;DHT22;63353;48.702;8.884;2023-05-07T03:32:00;8.90;99.90
74822;DHT22;63353;48.702;8.884;2023-05-07T03:34:26;8.90;99.90
74822;DHT22;63353;48.702;8.884;2023-05-07T03:36:55;8.90;99.90
74822;DHT22;63353;48.702;8.884;2023-05-07T03:39:27;9.00;99.90
74822;DHT22;63353;48.702;8.884;2023-05-07T03:41:53;8.90;99.90
74822;DHT22;63353;48.702;8.884;2023-05-07T03:44:18;8.90;99.90
74822;DHT22;63353;48.702;8.884;2023-05-07T03:46:44;8.90;99.90
74822;DHT22;63353;48.702;8.884;2023-05-07T03:49:09;8.90;99.90
74822;DHT22;63353;48.702;8.884;2023-05-07T03:51:35;8.90;99.90
74822;DHT22;63353;48.702;8.884;2023-05-07T03:54:01;8.90;99.90
74822;DHT22;63353;48.702;8.884;2023-05-07T03:56:27;8.90;99.90
74822;DHT22;63353;48.702;8.884;2023-05-07T03:58:53;8.80;99.90
74822;DHT22;63353;48.702;8.884;2023-05-07T04:01:19;8.80;99.90
74822;DHT22;63353;48.702;8.884;2023-05-07T04:03:45;8.70;99.90
74822;DHT22;63353;48.702;8.884;2023-05-07T04:06:10;8.70;99.90
74822;DHT22;63353;48.702;8.884;2023-05-07T04:08:37;8.70;99.90
74822;DHT22;63353;48.702;8.884;2023-05-07T04:11:03;8.70;99.90
74822;DHT22;63353;48.702;8.884;2023-05-07T04:13:29;8.70;99.90
74822;DHT22;63353;48.702;8.884;2023-05-07T04:15:55;8.70;99.90
74822;DHT22;63353;48.702;8.884;2023-05-07T04:18:21;8.70;99.90
74822;DHT22;63353;48.702;8.884;2023-05-07T04:20:56;8.70;99.90
74822;DHT22;63353;48.702;8.884;2023-05-07T04:23:21;8.80;99.90
74822;DHT22;63353;48.702;8.884;2023-05-07T04:25:47;8.80;99.90
74822;DHT22;63353;48.702;8.884;2023-05-07T04:28:13;8.80;99.90
74822;DHT22;63353;48.702;8.884;2023-05-07T04:30:39;8.80;99.90
74822;DHT22;63353;48.702;8.884;2023-05-07T04:33:06;8.80;99.90
74822;DHT22;63353;48.702;8.884;2023-05-07T04:35:32;8.90;99.90
74822;DHT22;63353;48.702;8.884;2023-05-07T04:37:58;9.00;99.90
74822;DHT22;63353;48.702;8.884;2023-05-07T04:40:24;9.00;99.90
74822;DHT22;63353;48.702;8.884;2023-05-07T04:42:50;9.10;99.90
74822;DHT22;63353;48.702;8.884;2023-05-07T04:45:16;9.10;99.90
74822;DHT22;63353;48.702;8.884;2023-05-07T04:47:42;9.20;99.90
74822;DHT22;63353;48.702;8.884;2023-05-07T04:50:08;9.20;99.90
74822;DHT22;63353;48.702;8.884;2023-05-07T04:52:34;9.20;99.90
74822;DHT22;63353;48.702;8.884;2023-05-07T04:55:00;9.30;99.90
74822;DHT22;63353;48.702;8.884;2023-05-07T04:57:26;9.40;99.90
74822;DHT22;63353;48.702;8.884;2023-05-07T04:59:53;9.40;99.90
74822;DHT22;63353;48.702;8.884;2023-05-07T05:02:19;9.50;99.90
74822;DHT22;63353;48.702;8.884;2023-05-07T05:04:45;9.60;99.90
74822;DHT22;63353;48.702;8.884;2023-05-07T05:07:11;9.70;99.90
74822;DHT22;63353;48.702;8.884;2023-05-07T05:09:36;9.90;99.90
74822;DHT22;63353;48.702;8.884;2023-05-07T05:12:02;10.10;99.90
74822;DHT22;63353;48.702;8.884;2023-05-07T05:14:29;10.20;99.90
74822;DHT22;63353;48.702;8.884;2023-05-07T05:16:55;10.30;99.90
74822;DHT22;63353;48.702;8.884;2023-05-07T05:19:21;10.40;99.90
74822;DHT22;63353;48.702;8.884;2023-05-07T05:21:46;10.60;99.90
74822;DHT22;63353;48.702;8.884;2023-05-07T05:24:12;10.70;99.90
74822;DHT22;63353;48.702;8.884;2023-05-07T05:26:38;10.80;99.90
74822;DHT22;63353;48.702;8.884;2023-05-07T05:29:03;11.00;99.90
74822;DHT22;63353;48.702;8.884;2023-05-07T05:31:29;11.10;99.90
74822;DHT22;63353;48.702;8.884;2023-05-07T05:33:55;11.20;99.90
74822;DHT22;63353;48.702;8.884;2023-05-07T05:36:20;11.30;99.90
74822;DHT22;63353;48.702;8.884;2023-05-07T05:38:46;11.40;99.90
74822;DHT22;63353;48.702;8.884;2023-05-07T05:41:12;11.40;99.90
74822;DHT22;63353;48.702;8.884;2023-05-07T05:43:37;11.60;99.90
74822;DHT22;63353;48.702;8.884;2023-05-07T05:46:03;11.70;99.90
74822;DHT22;63353;48.702;8.884;2023-05-07T05:48:30;11.90;99.90
74822;DHT22;63353;48.702;8.884;2023-05-07T05:50:57;12.00;99.90
74822;DHT22;63353;48.702;8.884;2023-05-07T05:53:22;12.20;99.90
74822;DHT22;63353;48.702;8.884;2023-05-07T05:55:49;12.40;99.90
74822;DHT22;63353;48.702;8.884;2023-05-07T05:58:15;12.50;99.90
74822;DHT22;63353;48.702;8.884;2023-05-07T06:00:40;12.60;99.90
74822;DHT22;63353;48.702;8.884;2023-05-07T06:03:06;12.80;99.90
74822;DHT22;63353;48.702;8.884;2023-05-07T06:05:32;13.00;99.90
74822;DHT22;63353;48.702;8.884;2023-05-07T06:08:00;13.10;99.90
74822;DHT22;63353;48.702;8.884;2023-05-07T06:10:26;13.30;99.90
74822;DHT22;63353;48.702;8.884;2023-05-07T06:12:52;13.50;99.90
74822;DHT22;63353;48.702;8.884;2023-05-07T06:15:19;13.70;99.90
74822;DHT22;63353;48.702;8.884;2023-05-07T06:17:45;13.80;99.90
74822;DHT22;63353;48.702;8.884;2023-05-07T06:20:10;13.90;99.90
74822;DHT22;63353;48.702;8.884;2023-05-07T06:22:39;13.90;99.90
74822;DHT22;63353;48.702;8.884;2023-05-07T06:25:05;13.90;99.90
74822;DHT22;63353;48.702;8.884;2023-05-07T06:27:31;13.90;99.90
74822;DHT22;63353;48.702;8.884;2023-05-07T06:29:57;13.90;99.90
74822;DHT22;63353;48.702;8.884;2023-05-07T06:32:22;13.90;99.90
74822;DHT22;63353;48.702;8.884;2023-05-07T06:34:51;13.90;99.90
74822;DHT22;63353;48.702;8.884;2023-05-07T06:37:20;14.00;99.90
74822;DHT22;63353;48.702;8.884;2023-05-07T06:39:48;14.20;99.90
74822;DHT22;63353;48.702;8.884;2023-05-07T06:42:17;14.40;99.90
74822;DHT22;63353;48.702;8.884;2023-05-07T06:44:45;14.60;99.90
74822;DHT22;63353;48.702;8.884;2023-05-07T06:47:14;14.90;99.90
74822;DHT22;63353;48.702;8.884;2023-05-07T06:49:45;15.30;99.90
74822;DHT22;63353;48.702;8.884;2023-05-07T06:52:11;15.60;99.90
74822;DHT22;63353;48.702;8.884;2023-05-07T06:54:40;16.00;99.90
74822;DHT22;63353;48.702;8.884;2023-05-07T06:57:05;16.20;99.90
74822;DHT22;63353;48.702;8.884;2023-05-07T06:59:31;16.50;99.90
74822;DHT22;63353;48.702;8.884;2023-05-07T07:01:56;16.80;99.90
74822;DHT22;63353;48.702;8.884;2023-05-07T07:04:25;17.20;99.90
74822;DHT22;63353;48.702;8.884;2023-05-07T07:06:54;17.50;99.90
74822;DHT22;63353;48.702;8.884;2023-05-07T07:09:20;17.80;99.90
74822;DHT22;63353;48.702;8.884;2023-05-07T07:11:48;18.00;99.90
74822;DHT22;63353;48.702;8.884;2023-05-07T07:14:14;18.30;99.90
74822;DHT22;63353;48.702;8.884;2023-05-07T07:16:43;18.60;99.90
74822;DHT22;63353;48.702;8.884;2023-05-07T07:19:08;18.70;99.90
74822;DHT22;63353;48.702;8.884;2023-05-07T07:21:34;18.80;99.90
74822;DHT22;63353;48.702;8.884;2023-05-07T07:23:59;18.80;99.90
74822;DHT22;63353;48.702;8.884;2023-05-07T07:26:25;19.00;99.90
74822;DHT22;63353;48.702;8.884;2023-05-07T07:28:51;19.10;99.90
74822;DHT22;63353;48.702;8.884;2023-05-07T07:31:17;19.10;99.90
74822;DHT22;63353;48.702;8.884;2023-05-07T07:33:42;19.20;99.90
74822;DHT22;63353;48.702;8.884;2023-05-07T07:36:08;19.20;99.90
74822;DHT22;63353;48.702;8.884;2023-05-07T07:38:34;19.20;99.90
74822;DHT22;63353;48.702;8.884;2023-05-07T07:41:01;19.30;99.90
74822;DHT22;63353;48.702;8.884;2023-05-07T07:43:27;19.20;99.90
74822;DHT22;63353;48.702;8.884;2023-05-07T07:45:53;19.00;99.90
74822;DHT22;63353;48.702;8.884;2023-05-07T07:48:19;18.90;99.90
74822;DHT22;63353;48.702;8.884;2023-05-07T07:50:44;19.10;99.90
74822;DHT22;63353;48.702;8.884;2023-05-07T07:53:13;19.30;99.90
74822;DHT22;63353;48.702;8.884;2023-05-07T07:55:39;19.50;99.90
74822;DHT22;63353;48.702;8.884;2023-05-07T07:58:05;19.90;99.90
74822;DHT22;63353;48.702;8.884;2023-05-07T08:00:31;20.20;99.90
74822;DHT22;63353;48.702;8.884;2023-05-07T08:02:59;20.20;99.90
74822;DHT22;63353;48.702;8.884;2023-05-07T08:05:26;20.30;99.90
74822;DHT22;63353;48.702;8.884;2023-05-07T08:07:51;20.50;99.90
74822;DHT22;63353;48.702;8.884;2023-05-07T08:10:19;20.60;99.90
74822;DHT22;63353;48.702;8.884;2023-05-07T08:12:48;20.70;99.90
74822;DHT22;63353;48.702;8.884;2023-05-07T08:15:14;20.80;99.90
74822;DHT22;63353;48.702;8.884;2023-05-07T08:17:40;21.10;99.90
74822;DHT22;63353;48.702;8.884;2023-05-07T08:20:06;21.20;99.90
74822;DHT22;63353;48.702;8.884;2023-05-07T08:22:32;21.40;99.90
74822;DHT22;63353;48.702;8.884;2023-05-07T08:24:57;21.60;99.90
74822;DHT22;63353;48.702;8.884;2023-05-07T08:27:23;21.50;99.90
74822;DHT22;63353;48.702;8.884;2023-05-07T08:29:49;21.40;99.90
74822;DHT22;63353;48.702;8.884;2023-05-07T08:32:18;21.50;99.90
74822;DHT22;63353;48.702;8.884;2023-05-07T08:34:43;21.90;99.90
74822;DHT22;63353;48.702;8.884;2023-05-07T08:37:09;22.30;99.90
74822;DHT22;63353;48.702;8.884;2023-05-07T08:39:38;22.70;99.90
74822;DHT22;63353;48.702;8.884;2023-05-07T08:42:04;23.00;99.90
74822;DHT22;63353;48.702;8.884;2023-05-07T08:44:37;23.20;99.90
74822;DHT22;63353;48.702;8.884;2023-05-07T08:47:06;23.40;99.90
74822;DHT22;63353;48.702;8.884;2023-05-07T08:49:33;23.50;99.90
74822;DHT22;63353;48.702;8.884;2023-05-07T08:52:02;23.20;99.90
74822;DHT22;63353;48.702;8.884;2023-05-07T08:54:28;22.80;99.90
74822;DHT22;63353;48.702;8.884;2023-05-07T08:56:54;23.00;99.90
74822;DHT22;63353;48.702;8.884;2023-05-07T08:59:20;23.40;99.90
74822;DHT22;63353;48.702;8.884;2023-05-07T09:01:46;23.60;99.90
74822;DHT22;63353;48.702;8.884;2023-05-07T09:04:12;24.00;99.90
74822;DHT22;63353;48.702;8.884;2023-05-07T09:06:38;24.00;99.90
74822;DHT22;63353;48.702;8.884;2023-05-07T09:09:07;24.10;99.90
74822;DHT22;63353;48.702;8.884;2023-05-07T09:11:33;24.40;99.90
74822;DHT22;63353;48.702;8.884;2023-05-07T09:13:58;24.70;99.90
74822;DHT22;63353;48.702;8.884;2023-05-07T09:16:28;25.00;99.90
74822;DHT22;63353;48.702;8.884;2023-05-07T09:18:54;25.30;99.90
74822;DHT22;63353;48.702;8.884;2023-05-07T09:21:21;25.60;99.90
74822;DHT22;63353;48.702;8.884;2023-05-07T09:23:50;25.90;99.90
74822;DHT22;63353;48.702;8.884;2023-05-07T09:26:16;25.80;99.90
74822;DHT22;63353;48.702;8.884;2023-05-07T09:28:45;25.90;99.90
74822;DHT22;63353;48.702;8.884;2023-05-07T09:31:12;25.90;99.90
74822;DHT22;63353;48.702;8.884;2023-05-07T09:33:39;25.70;99.90
74822;DHT22;63353;48.702;8.884;2023-05-07T09:36:06;25.40;99.90
74822;DHT22;63353;48.702;8.884;2023-05-07T09:38:36;25.40;99.90
74822;DHT22;63353;48.702;8.884;2023-05-07T09:41:04;25.50;99.90
74822;DHT22;63353;48.702;8.884;2023-05-07T09:43:37;25.40;99.90
74822;DHT22;63353;48.702;8.884;2023-05-07T09:48:34;25.90;99.90
74822;DHT22;63353;48.702;8.884;2023-05-07T09:51:02;26.10;99.90
74822;DHT22;63353;48.702;8.884;2023-05-07T09:53:30;26.30;99.90
74822;DHT22;63353;48.702;8.884;2023-05-07T09:55:57;26.40;99.90
74822;DHT22;63353;48.702;8.884;2023-05-07T09:58:26;26.40;99.90
74822;DHT22;63353;48.702;8.884;2023-05-07T10:00:52;26.70;99.90
74822;DHT22;63353;48.702;8.884;2023-05-07T10:03:22;26.80;99.90
74822;DHT22;63353;48.702;8.884;2023-05-07T10:05:50;27.10;99.90
74822;DHT22;63353;48.702;8.884;2023-05-07T10:08:16;27.20;99.90
74822;DHT22;63353;48.702;8.884;2023-05-07T10:10:42;27.30;99.90
74822;DHT22;63353;48.702;8.884;2023-05-07T10:13:09;26.20;99.90
74822;DHT22;63353;48.702;8.884;2023-05-07T10:15:36;26.50;99.90
74822;DHT22;63353;48.702;8.884;2023-05-07T10:18:03;26.70;99.90
74822;DHT22;63353;48.702;8.884;2023-05-07T10:20:30;27.10;99.90
74822;DHT22;63353;48.702;8.884;2023-05-07T10:22:57;27.30;99.90
74822;DHT22;63353;48.702;8.884;2023-05-07T10:25:33;27.30;99.90
74822;DHT22;63353;48.702;8.884;2023-05-07T10:28:03;27.30;99.90
74822;DHT22;63353;48.702;8.884;2023-05-07T10:30:38;26.60;99.90
74822;DHT22;63353;48.702;8.884;2023-05-07T10:33:07;26.50;99.90
74822;DHT22;63353;48.702;8.884;2023-05-07T10:35:42;26.80;99.90
74822;DHT22;63353;48.702;8.884;2023-05-07T10:38:08;27.20;99.90
74822;DHT22;63353;48.702;8.884;2023-05-07T10:40:34;27.10;99.90
74822;DHT22;63353;48.702;8.884;2023-05-07T10:43:02;26.20;99.90
74822;DHT22;63353;48.702;8.884;2023-05-07T10:45:30;26.30;99.90
74822;DHT22;63353;48.702;8.884;2023-05-07T10:50:36;27.20;99.90
74822;DHT22;63353;48.702;8.884;2023-05-07T10:55:52;27.20;99.90
74822;DHT22;63353;48.702;8.884;2023-05-07T10:58:35;26.90;99.90
74822;DHT22;63353;48.702;8.884;2023-05-07T11:01:03;26.60;99.90
74822;DHT22;63353;48.702;8.884;2023-05-07T11:03:29;26.00;99.90
74822;DHT22;63353;48.702;8.884;2023-05-07T11:06:15;25.70;99.90
74822;DHT22;63353;48.702;8.884;2023-05-07T11:08:57;25.30;99.90
74822;DHT22;63353;48.702;8.884;2023-05-07T11:11:49;25.00;99.90
74822;DHT22;63353;48.702;8.884;2023-05-07T11:14:50;24.70;99.90
74822;DHT22;63353;48.702;8.884;2023-05-07T11:17:17;24.20;99.90
74822;DHT22;63353;48.702;8.884;2023-05-07T11:19:53;23.60;99.90
74822;DHT22;63353;48.702;8.884;2023-05-07T11:25:02;23.20;99.90
74822;DHT22;63353;48.702;8.884;2023-05-07T11:27:28;23.00;99.90
74822;DHT22;63353;48.702;8.884;2023-05-07T11:29:54;22.60;99.90
74822;DHT22;63353;48.702;8.884;2023-05-07T11:32:30;22.10;99.90
74822;DHT22;63353;48.702;8.884;2023-05-07T11:35:00;21.60;99.90
74822;DHT22;63353;48.702;8.884;2023-05-07T11:37:27;21.30;99.90
74822;DHT22;63353;48.702;8.884;2023-05-07T11:40:05;21.00;99.90
74822;DHT22;63353;48.702;8.884;2023-05-07T11:42:33;20.10;99.90
74822;DHT22;63353;48.702;8.884;2023-05-07T11:45:00;19.50;99.90
74822;DHT22;63353;48.702;8.884;2023-05-07T11:47:29;19.50;99.90
74822;DHT22;63353;48.702;8.884;2023-05-07T11:49:55;19.20;99.90
74822;DHT22;63353;48.702;8.884;2023-05-07T11:52:22;18.70;99.90
74822;DHT22;63353;48.702;8.884;2023-05-07T11:54:58;18.50;99.90
74822;DHT22;63353;48.702;8.884;2023-05-07T11:57:25;18.20;99.90
74822;DHT22;63353;48.702;8.884;2023-05-07T11:59:55;18.00;99.90
74822;DHT22;63353;48.702;8.884;2023-05-07T12:02:21;17.50;99.90
74822;DHT22;63353;48.702;8.884;2023-05-07T12:04:47;17.20;99.90
74822;DHT22;63353;48.702;8.884;2023-05-07T12:07:14;17.00;99.90
74822;DHT22;63353;48.702;8.884;2023-05-07T12:09:47;16.90;99.90
74822;DHT22;63353;48.702;8.884;2023-05-07T12:12:13;16.80;99.90
74822;DHT22;63353;48.702;8.884;2023-05-07T12:14:42;16.80;99.90
74822;DHT22;63353;48.702;8.884;2023-05-07T12:17:09;16.90;99.90
74822;DHT22;63353;48.702;8.884;2023-05-07T12:19:36;16.90;99.90
74822;DHT22;63353;48.702;8.884;2023-05-07T12:22:05;17.00;99.90
74822;DHT22;63353;48.702;8.884;2023-05-07T12:27:09;17.30;99.90
74822;DHT22;63353;48.702;8.884;2023-05-07T12:29:34;17.50;99.90
74822;DHT22;63353;48.702;8.884;2023-05-07T12:32:00;17.50;99.90
74822;DHT22;63353;48.702;8.884;2023-05-07T12:34:26;17.60;99.90
74822;DHT22;63353;48.702;8.884;2023-05-07T12:37:01;17.70;99.90
74822;DHT22;63353;48.702;8.884;2023-05-07T12:39:27;17.70;99.90
74822;DHT22;63353;48.702;8.884;2023-05-07T12:42:02;17.70;99.90
74822;DHT22;63353;48.702;8.884;2023-05-07T12:44:34;17.60;99.90
74822;DHT22;63353;48.702;8.884;2023-05-07T12:47:02;17.60;99.90
74822;DHT22;63353;48.702;8.884;2023-05-07T12:49:27;17.60;99.90
74822;DHT22;63353;48.702;8.884;2023-05-07T12:51:53;17.50;99.90
74822;DHT22;63353;48.702;8.884;2023-05-07T12:54:32;17.50;99.90
74822;DHT22;63353;48.702;8.884;2023-05-07T12:57:02;17.40;99.90
74822;DHT22;63353;48.702;8.884;2023-05-07T12:59:41;17.40;99.90
74822;DHT22;63353;48.702;8.884;2023-05-07T13:02:08;17.40;99.90
74822;DHT22;63353;48.702;8.884;2023-05-07T13:04:40;17.30;99.90
74822;DHT22;63353;48.702;8.884;2023-05-07T13:07:05;17.20;99.90
74822;DHT22;63353;48.702;8.884;2023-05-07T13:09:31;17.20;99.90
74822;DHT22;63353;48.702;8.884;2023-05-07T13:12:00;17.20;99.90
74822;DHT22;63353;48.702;8.884;2023-05-07T13:14:26;17.20;99.90
74822;DHT22;63353;48.702;8.884;2023-05-07T13:16:52;17.00;99.90
74822;DHT22;63353;48.702;8.884;2023-05-07T13:19:21;16.70;99.90
74822;DHT22;63353;48.702;8.884;2023-05-07T13:21:52;16.30;99.90
74822;DHT22;63353;48.702;8.884;2023-05-07T13:24:21;16.00;99.90
74822;DHT22;63353;48.702;8.884;2023-05-07T13:26:46;15.90;99.90
74822;DHT22;63353;48.702;8.884;2023-05-07T13:29:15;15.70;99.90
74822;DHT22;63353;48.702;8.884;2023-05-07T13:31:40;15.50;99.90
74822;DHT22;63353;48.702;8.884;2023-05-07T13:34:09;15.30;99.90
74822;DHT22;63353;48.702;8.884;2023-05-07T13:36:35;15.00;99.90
74822;DHT22;63353;48.702;8.884;2023-05-07T13:39:04;14.80;99.90
74822;DHT22;63353;48.702;8.884;2023-05-07T13:41:31;14.70;99.90
74822;DHT22;63353;48.702;8.884;2023-05-07T13:43:59;14.60;99.90
74822;DHT22;63353;48.702;8.884;2023-05-07T13:46:28;14.50;99.90
74822;DHT22;63353;48.702;8.884;2023-05-07T13:48:55;14.50;99.90
74822;DHT22;63353;48.702;8.884;2023-05-07T13:51:21;14.40;99.90
74822;DHT22;63353;48.702;8.884;2023-05-07T13:53:46;14.30;99.90
74822;DHT22;63353;48.702;8.884;2023-05-07T13:56:27;14.30;99.90
74822;DHT22;63353;48.702;8.884;2023-05-07T13:58:56;14.30;99.90
74822;DHT22;63353;48.702;8.884;2023-05-07T14:01:21;14.30;99.90
74822;DHT22;63353;48.702;8.884;2023-05-07T14:03:47;14.40;99.90
74822;DHT22;63353;48.702;8.884;2023-05-07T14:06:13;14.40;99.90
74822;DHT22;63353;48.702;8.884;2023-05-07T14:08:43;14.40;99.90
74822;DHT22;63353;48.702;8.884;2023-05-07T14:11:21;14.50;99.90
74822;DHT22;63353;48.702;8.884;2023-05-07T14:13:46;14.60;99.90
74822;DHT22;63353;48.702;8.884;2023-05-07T14:16:12;14.60;99.90
74822;DHT22;63353;48.702;8.884;2023-05-07T14:18:37;14.70;99.90
74822;DHT22;63353;48.702;8.884;2023-05-07T14:21:04;14.80;99.90
74822;DHT22;63353;48.702;8.884;2023-05-07T14:23:31;14.90;99.90
74822;DHT22;63353;48.702;8.884;2023-05-07T14:26:03;15.00;99.90
74822;DHT22;63353;48.702;8.884;2023-05-07T14:28:29;15.10;99.90
74822;DHT22;63353;48.702;8.884;2023-05-07T14:30:58;15.20;99.90
74822;DHT22;63353;48.702;8.884;2023-05-07T14:33:23;15.30;99.90
74822;DHT22;63353;48.702;8.884;2023-05-07T14:35:55;15.30;99.90
74822;DHT22;63353;48.702;8.884;2023-05-07T14:38:23;15.40;99.90
74822;DHT22;63353;48.702;8.884;2023-05-07T14:40:49;15.40;99.90
74822;DHT22;63353;48.702;8.884;2023-05-07T14:43:24;15.40;99.90
74822;DHT22;63353;48.702;8.884;2023-05-07T14:45:49;15.40;99.90
74822;DHT22;63353;48.702;8.884;2023-05-07T14:48:15;15.50;99.90
74822;DHT22;63353;48.702;8.884;2023-05-07T14:50:47;15.60;99.90
74822;DHT22;63353;48.702;8.884;2023-05-07T14:53:12;15.60;99.90
74822;DHT22;63353;48.702;8.884;2023-05-07T14:55:41;15.70;99.90
74822;DHT22;63353;48.702;8.884;2023-05-07T14:58:07;15.70;99.90
74822;DHT22;63353;48.702;8.884;2023-05-07T15:00:33;15.70;99.90
74822;DHT22;63353;48.702;8.884;2023-05-07T15:03:06;15.70;99.90
74822;DHT22;63353;48.702;8.884;2023-05-07T15:05:32;15.70;99.90
74822;DHT22;63353;48.702;8.884;2023-05-07T15:07:58;15.70;99.90
74822;DHT22;63353;48.702;8.884;2023-05-07T15:10:24;15.60;99.90
74822;DHT22;63353;48.702;8.884;2023-05-07T15:12:50;15.50;99.90
74822;DHT22;63353;48.702;8.884;2023-05-07T15:15:18;15.40;99.90
74822;DHT22;63353;48.702;8.884;2023-05-07T15:17:47;15.50;99.90
74822;DHT22;63353;48.702;8.884;2023-05-07T15:20:18;15.60;99.90
74822;DHT22;63353;48.702;8.884;2023-05-07T15:22:44;15.60;99.90
74822;DHT22;63353;48.702;8.884;2023-05-07T15:25:14;15.60;99.90
74822;DHT22;63353;48.702;8.884;2023-05-07T15:27:42;15.70;99.90
74822;DHT22;63353;48.702;8.884;2023-05-07T15:30:08;15.80;99.90
74822;DHT22;63353;48.702;8.884;2023-05-07T15:32:37;15.90;99.90
74822;DHT22;63353;48.702;8.884;2023-05-07T15:35:04;16.10;99.90
74822;DHT22;63353;48.702;8.884;2023-05-07T15:37:36;16.20;99.90
74822;DHT22;63353;48.702;8.884;2023-05-07T15:40:05;16.20;99.90
74822;DHT22;63353;48.702;8.884;2023-05-07T15:42:32;16.40;99.90
74822;DHT22;63353;48.702;8.884;2023-05-07T15:45:01;16.50;99.90
74822;DHT22;63353;48.702;8.884;2023-05-07T15:47:33;16.60;99.90
74822;DHT22;63353;48.702;8.884;2023-05-07T15:50:06;16.60;99.90
74822;DHT22;63353;48.702;8.884;2023-05-07T15:52:34;16.70;99.90